Afipsky Heliport

URKF · Krasnodarskiy, 俄罗斯

使用的METAR站距离机场32 km。
罗盘
风向 的 风向 080° 直升机
风: 6 kt, 2 beaufort
0 ft 1.000 2.000 3.000 4.000 5.000
CAVOK
METAR URKK 231830Z 08003MPS CAVOK 06/00 Q1026 R05R/CLRD70 NOSIG RMK QFE766

METAR Afipsky Heliport - URKF

Afipsky Heliport是,俄罗斯中的直升机场。 该机场位于纬度44,87300和经度38,82900。 本场的ICAO机场代码为URKF。 机场在Rostov-na-donu FIR中。

该航空气象观测是针对Krasnodar Pashkovsky International Airport在2024年2月23日 21:30, 当地时间进行的。

机场观察

风向为080°,速度为6 kt。

天气为CAVOK。这意味着在5.000 ft或MSA(最低安全高度)以下(以较高者为准)以下没有云。这也意味着没有观测到积雨云或高耸的积云,可见度为10 km 或者更多或更高。此外,不会有雾,降雨或其他重要天气。

温度为6 °C,阵风为2 °C。 海平面上的气压为1026 hPa (QNH)。

白天

今天,太阳从07:13升起,在18:02降落。 这适用于Afipsky Heliport,世界夏令时可能有所不同。 当地时间与世界标准时间之间的时差为+3 小时。 当前,没有夏令时有效。

公司介绍

我们没有关于这个机场的公司信息。

体会

到Vliegles.nl去找飞行课程,跳伞和其他飞行体验。 浏览页面,了解Afipsky Heliport附近所有可用的活动。 你也可以使用搜索功能来寻找你所在地附近的特定飞行课程、跳伞或其他飞行体验。

警示语

跑道状况 RWY 05R: 干燥, 摩擦系数 0.7

温度 & 天气

温度 6 °C
露点 0 °C
相对湿度 66%
风寒 2 °C
Kp-index 0 (0-9)

跑道状况

05R 干燥, 摩擦系数 0.7

评论

QFE766未知降水 结束于 76, 结束于

白天

日出
07:12 (9:15)
中午
12:36
日落
18:01

小工具

你想在你的网站上有一个关于Afipsky Heliport的当前航空天气(METAR)的小部件吗?

显示HTML代码
?>